Погода Хотодана 2 недели

Республика Дагестан, Россия

14 - 27 июля
  • 14июля
    Сегодня
    +17°
    +31°
    Ясно и безоблачно
    ВремяПогодаТемператураВлажностьДавлениеВетер, м/сВероятность осадков
    00:00Небольшая облачность+19°C94 %684 мм1.0 м/с10 %
    03:00Небольшая облачность+19°C96 %684 мм1.1 м/с14 %
    06:00Ясно и безоблачно+20°C89 %685 мм1.5 м/с15 %
    09:00Ясно и безоблачно+26°C45 %685 мм1.4 м/с8 %
    12:00Ясно и безоблачно+29°C39 %685 мм1.6 м/с9 %
    15:00Ясно и безоблачно+30°C42 %685 мм2.4 м/с7 %
    18:00Ясно и безоблачно+26°C54 %685 мм0.9 м/с4 %
    21:00Ясно и безоблачно+21°C67 %685 мм0.5 м/с2 %
  • 15июля
    Понедельник
    +20°
    +30°
    Небольшая облачность
    ВремяПогодаТемператураВлажностьДавлениеВетер, м/сВероятность осадков
    00:00Ясно и безоблачно+18°C80 %685 мм0.6 м/с3 %
    03:00Ясно и безоблачно+18°C74 %685 мм0.8 м/с2 %
    06:00Ясно и безоблачно+20°C72 %685 мм1.0 м/с2 %
    09:00Ясно и безоблачно+26°C47 %686 мм1.2 м/с2 %
    12:00Ясно и безоблачно+29°C41 %686 мм1.9 м/с2 %
    15:00Небольшая облачность+30°C40 %686 мм1.5 м/с2 %
    18:00Практически безоблачно+28°C58 %686 мм1.0 м/с2 %
    21:00Ясно и безоблачно+24°C72 %687 мм0.3 м/с2 %
  • 16июля
    Вторник
    +20°
    +32°
    Облачно с прояснениями
    ВремяПогодаТемператураВлажностьДавлениеВетер, м/сВероятность осадков
    00:00Ясно и безоблачно+21°C87 %686 мм0.9 м/с2 %
    03:00Ясно и безоблачно+21°C87 %686 мм1.2 м/с2 %
    06:00Ясно и безоблачно+22°C79 %686 мм1.3 м/с2 %
    09:00Ясно и безоблачно+28°C50 %687 мм1.0 м/с2 %
    12:00Практически безоблачно+30°C45 %687 мм1.9 м/с9 %
    15:00Облачно с прояснениями+31°C44 %687 мм2.0 м/с19 %
    18:00Практически безоблачно+29°C59 %687 мм0.9 м/с12 %
    21:00Ясно и безоблачно+25°C74 %688 мм0.2 м/с6 %
  • 17июля
    Среда
    +21°
    +32°
    Облачно с прояснениями
    ВремяПогодаТемператураВлажностьДавлениеВетер, м/сВероятность осадков
    00:00Ясно и безоблачно+22°C87 %687 мм0.7 м/с2 %
    03:00Ясно и безоблачно+22°C89 %687 мм1.0 м/с2 %
    06:00Ясно и безоблачно+23°C83 %687 мм1.3 м/с2 %
    09:00Практически безоблачно+28°C51 %688 мм0.8 м/с2 %
    12:00Небольшая облачность+30°C46 %688 мм1.8 м/с22 %
    15:00Облачно с прояснениями+32°C42 %688 мм1.9 м/с43 %
    18:00Практически безоблачно+29°C62 %687 мм0.5 м/с31 %
    21:00Практически безоблачно+25°C66 %688 мм0.2 м/с3 %
  • 18июля
    Четверг
    +20°
    +32°
    Небольшая облачность и лёгкий дождик
    ВремяПогодаТемператураВлажностьДавлениеВетер, м/сВероятность осадков
    00:00Небольшая облачность+22°C79 %687 мм0.9 м/с2 %
    03:00Небольшая облачность+22°C79 %687 мм1.0 м/с3 %
    06:00Ясно и безоблачно+23°C76 %687 мм1.4 м/с5 %
    09:00Ясно и безоблачно+28°C48 %688 мм1.2 м/с24 %
    12:00Небольшая облачность и лёгкий дождик+31°C41 %687 мм1.8 м/с55 %
    15:00Небольшая облачность и лёгкий дождик+32°C38 %687 мм2.6 м/с61 %
    18:00Ясно и безоблачно+28°C53 %686 мм0.9 м/с47 %
    21:00Практически безоблачно+24°C63 %687 мм0.2 м/с10 %
Мы используем cookies
Соглашаюсь